Hyundai Forward — 3EJY9 — position and weather

sailwx.info

Track history (hours):
 
Tides and Currents Weather Stations Pressure Air Temp Water Temp Dewpoint Dewpoint Depression Visibility Wind Speed Wind Dir Waves Ship Positions

Hyundai Forward

Last reported at 2016-Jul-17 12:24 UTC. Time now 2016-Jul-26 21:48 UTC.
Position N 34°27' W 124°18'.
Warning: this ship's position is 9 days out of date.

Length 295 m; draft 9.2 m.

Type: Cargo ship. MMSI: 372652000.

Date/timePositionNaut miles runAvg speedWind from/ knotsBaromVisibWave heightAir tempDewpointWater temp
2016-Jul-17 12:24N 34°27' W 124°18'1214.2
2016-Jul-17 11:33N 34°27' W 124°04'3213.9
2016-Jul-17 09:17N 34°27' W 123°25'1013.7
2016-Jul-17 08:33N 34°27' W 123°13'1413.5
2016-Jul-17 07:33N 34°26' W 122°57'1413.7
2016-Jul-17 06:33N 34°26' W 122°40'2814.0
2016-Jul-17 04:33N 34°26' W 122°06'1414.2
2016-Jul-17 03:32N 34°26' W 121°49'1414.0
2016-Jul-17 02:33N 34°26' W 121°32'1514.4
2016-Jul-17 01:33N 34°26' W 121°15'1514.8
2016-Jul-17 00:33N 34°26' W 120°57'1715.2
2016-Jul-16 23:27N 34°23' W 120°37'1415.3
2016-Jul-16 22:33N 34°19' W 120°21'1413.6
2016-Jul-16 21:32N 34°16' W 120°05'1413.9
2016-Jul-16 20:32N 34°12' W 119°48'1414.1
2016-Jul-16 19:33N 34°08' W 119°32'1313.5
2016-Jul-16 18:34N 34°05' W 119°17'1211.4
2016-Jul-16 17:33N 33°59' W 119°05'1111.1
2016-Jul-16 16:33N 33°54' W 118°53'1110.9
2016-Jul-16 15:33N 33°48' W 118°42'1111.0
2016-Jul-16 14:34N 33°43' W 118°30'1110.5
2016-Jul-16 13:32N 33°39' W 118°18'5 5.6
2016-Jul-16 12:34N 33°44' W 118°16'0 0.1
2016-Jul-16 11:31N 33°44' W 118°16'0 0.0
2016-Jul-16 10:31N 33°44' W 118°16'0 0.0
2016-Jul-16 09:31N 33°44' W 118°16'0 0.0
2016-Jul-16 08:31N 33°44' W 118°16'0 0.0
2016-Jul-16 07:31N 33°44' W 118°16'0 0.0
2016-Jul-16 06:19N 33°44' W 118°16'0 0.0
2016-Jul-16 04:31N 33°44' W 118°16'0 0.0
2016-Jul-16 03:31N 33°44' W 118°16'0 0.0
2016-Jul-16 02:31N 33°44' W 118°16'0 0.0
2016-Jul-16 01:31N 33°44' W 118°16'0 0.0
2016-Jul-16 00:31N 33°44' W 118°16'0 0.0
2016-Jul-15 23:31N 33°44' W 118°16'0 0.0
2016-Jul-15 22:19N 33°44' W 118°16'0 0.0
2016-Jul-15 21:31N 33°44' W 118°16'0 0.0
2016-Jul-15 20:31N 33°44' W 118°16'0 0.0
2016-Jul-15 19:19N 33°44' W 118°16'0 0.0
2016-Jul-15 18:25N 33°44' W 118°16'0 0.0
2016-Jul-15 17:25N 33°44' W 118°16'0 0.0
2016-Jul-15 16:25N 33°44' W 118°16'0 0.0
2016-Jul-15 15:31N 33°44' W 118°16'0 0.0
2016-Jul-15 14:31N 33°44' W 118°16'0 0.0
2016-Jul-15 13:25N 33°44' W 118°16'0 0.0
2016-Jul-15 12:31N 33°44' W 118°16'0 0.0
2016-Jul-15 11:31N 33°44' W 118°16'0 0.0
2016-Jul-15 10:25N 33°44' W 118°16'0 0.0
2016-Jul-15 09:19N 33°44' W 118°16'0 0.0
2016-Jul-15 08:31N 33°44' W 118°16'0 0.0
2016-Jul-15 07:25N 33°44' W 118°16'0 0.0
2016-Jul-15 06:31N 33°44' W 118°16'0 0.0
2016-Jul-15 04:25N 33°44' W 118°16'0 0.0
2016-Jul-15 03:31N 33°44' W 118°16'0 0.0
2016-Jul-15 02:19N 33°44' W 118°16'0 0.0
2016-Jul-15 01:31N 33°44' W 118°16'0 0.0
2016-Jul-15 00:25N 33°44' W 118°16'0 0.0
2016-Jul-14 23:31N 33°44' W 118°16'0 0.0
2016-Jul-14 22:31N 33°44' W 118°16'0 0.0
2016-Jul-14 21:25N 33°44' W 118°16'0 0.0
2016-Jul-14 20:13N 33°44' W 118°16'0 0.0
2016-Jul-14 19:22N 33°44' W 118°16'0 0.0
2016-Jul-14 18:25N 33°44' W 118°16'0 0.0
2016-Jul-14 17:31N 33°44' W 118°16'0 0.0
2016-Jul-14 16:19N 33°44' W 118°16'0 0.0
2016-Jul-14 15:31N 33°44' W 118°16'0 0.0
2016-Jul-14 14:25N 33°44' W 118°16'0 0.0
2016-Jul-14 13:33N 33°44' W 118°16'5 4.9
2016-Jul-14 12:33N 33°39' W 118°13'7 6.7
2016-Jul-14 11:33N 33°36' W 118°20'4 3.6
2016-Jul-14 10:33N 33°38' W 118°24'6 6.2
2016-Jul-14 09:33N 33°41' W 118°30'9 8.5
2016-Jul-14 08:33N 33°45' W 118°39'1110.7
2016-Jul-14 07:33N 33°50' W 118°51'1110.5
2016-Jul-14 06:33N 33°55' W 119°02'1010.5
2016-Jul-14 05:33N 34°01' W 119°12'1110.7
2016-Jul-14 04:33N 34°04' W 119°25'1212.1
2016-Jul-14 03:33N 34°07' W 119°39'1515.3
2016-Jul-14 02:33N 34°12' W 119°57'1614.7
2016-Jul-14 01:29N 34°16' W 120°15'1313.9
2016-Jul-14 00:32N 34°19' W 120°31'1313.6
2016-Jul-13 23:33N 34°23' W 120°46'1010.2
2016-Jul-13 22:33N 34°25' W 120°58'1413.6
2016-Jul-13 21:34N 34°26' W 121°14'1515.2
2016-Jul-13 20:33N 34°26' W 121°33'1515.4
2016-Jul-13 19:33N 34°25' W 121°52'1616.0
2016-Jul-13 18:32N 34°26' W 122°11'1616.0
2016-Jul-13 17:34N 34°26' W 122°30'1716.5
2016-Jul-13 16:33N 34°26' W 122°50'1716.8
2016-Jul-13 15:33N 34°26' W 123°11'1616.6
2016-Jul-13 14:34N 34°26' W 123°31'3416.6
2016-Jul-13 12:31N 34°26' W 124°12'1616.5
2016-Jul-13 11:33N 34°27' W 124°31'1616.3
2016-Jul-13 10:34N 34°27' W 124°51'1716.5
2016-Jul-13 09:33N 34°27' W 125°11'  
Track history (hours):
 
Tides and Currents Weather Stations Pressure Air Temp Water Temp Dewpoint Dewpoint Depression Visibility Wind Speed Wind Dir Waves Ship Positions

Hyundai Forward

Last reported at 2016-Jul-17 12:24 UTC. Time now 2016-Jul-26 21:48 UTC.
Position N 34°27' W 124°18'.
Warning: this ship's position is 9 days out of date.

Length 295 m; draft 9.2 m.

Type: Cargo ship. MMSI: 372652000.

Date/timePositionNaut miles runAvg speedWind from/ knotsBaromVisibWave heightAir tempDewpointWater temp
2016-Jul-17 12:24N 34°27' W 124°18'1214.2
2016-Jul-17 11:33N 34°27' W 124°04'3213.9
2016-Jul-17 09:17N 34°27' W 123°25'1013.7
2016-Jul-17 08:33N 34°27' W 123°13'1413.5
2016-Jul-17 07:33N 34°26' W 122°57'1413.7
2016-Jul-17 06:33N 34°26' W 122°40'2814.0
2016-Jul-17 04:33N 34°26' W 122°06'1414.2
2016-Jul-17 03:32N 34°26' W 121°49'1414.0
2016-Jul-17 02:33N 34°26' W 121°32'1514.4
2016-Jul-17 01:33N 34°26' W 121°15'1514.8
2016-Jul-17 00:33N 34°26' W 120°57'1715.2
2016-Jul-16 23:27N 34°23' W 120°37'1415.3
2016-Jul-16 22:33N 34°19' W 120°21'1413.6
2016-Jul-16 21:32N 34°16' W 120°05'1413.9
2016-Jul-16 20:32N 34°12' W 119°48'1414.1
2016-Jul-16 19:33N 34°08' W 119°32'1313.5
2016-Jul-16 18:34N 34°05' W 119°17'1211.4
2016-Jul-16 17:33N 33°59' W 119°05'1111.1
2016-Jul-16 16:33N 33°54' W 118°53'1110.9
2016-Jul-16 15:33N 33°48' W 118°42'1111.0
2016-Jul-16 14:34N 33°43' W 118°30'1110.5
2016-Jul-16 13:32N 33°39' W 118°18'5 5.6
2016-Jul-16 12:34N 33°44' W 118°16'0 0.1
2016-Jul-16 11:31N 33°44' W 118°16'0 0.0
2016-Jul-16 10:31N 33°44' W 118°16'0 0.0
2016-Jul-16 09:31N 33°44' W 118°16'0 0.0
2016-Jul-16 08:31N 33°44' W 118°16'0 0.0
2016-Jul-16 07:31N 33°44' W 118°16'0 0.0
2016-Jul-16 06:19N 33°44' W 118°16'0 0.0
2016-Jul-16 04:31N 33°44' W 118°16'0 0.0
2016-Jul-16 03:31N 33°44' W 118°16'0 0.0
2016-Jul-16 02:31N 33°44' W 118°16'0 0.0
2016-Jul-16 01:31N 33°44' W 118°16'0 0.0
2016-Jul-16 00:31N 33°44' W 118°16'0 0.0
2016-Jul-15 23:31N 33°44' W 118°16'0 0.0
2016-Jul-15 22:19N 33°44' W 118°16'0 0.0
2016-Jul-15 21:31N 33°44' W 118°16'0 0.0
2016-Jul-15 20:31N 33°44' W 118°16'0 0.0
2016-Jul-15 19:19N 33°44' W 118°16'0 0.0
2016-Jul-15 18:25N 33°44' W 118°16'0 0.0
2016-Jul-15 17:25N 33°44' W 118°16'0 0.0
2016-Jul-15 16:25N 33°44' W 118°16'0 0.0
2016-Jul-15 15:31N 33°44' W 118°16'0 0.0
2016-Jul-15 14:31N 33°44' W 118°16'0 0.0
2016-Jul-15 13:25N 33°44' W 118°16'0 0.0
2016-Jul-15 12:31N 33°44' W 118°16'0 0.0
2016-Jul-15 11:31N 33°44' W 118°16'0 0.0
2016-Jul-15 10:25N 33°44' W 118°16'0 0.0
2016-Jul-15 09:19N 33°44' W 118°16'0 0.0
2016-Jul-15 08:31N 33°44' W 118°16'0 0.0
2016-Jul-15 07:25N 33°44' W 118°16'0 0.0
2016-Jul-15 06:31N 33°44' W 118°16'0 0.0
2016-Jul-15 04:25N 33°44' W 118°16'0 0.0
2016-Jul-15 03:31N 33°44' W 118°16'0 0.0
2016-Jul-15 02:19N 33°44' W 118°16'0 0.0
2016-Jul-15 01:31N 33°44' W 118°16'0 0.0
2016-Jul-15 00:25N 33°44' W 118°16'0 0.0
2016-Jul-14 23:31N 33°44' W 118°16'0 0.0
2016-Jul-14 22:31N 33°44' W 118°16'0 0.0
2016-Jul-14 21:25N 33°44' W 118°16'0 0.0
2016-Jul-14 20:13N 33°44' W 118°16'0 0.0
2016-Jul-14 19:22N 33°44' W 118°16'0 0.0
2016-Jul-14 18:25N 33°44' W 118°16'0 0.0
2016-Jul-14 17:31N 33°44' W 118°16'0 0.0
2016-Jul-14 16:19N 33°44' W 118°16'0 0.0
2016-Jul-14 15:31N 33°44' W 118°16'0 0.0
2016-Jul-14 14:25N 33°44' W 118°16'0 0.0
2016-Jul-14 13:33N 33°44' W 118°16'5 4.9
2016-Jul-14 12:33N 33°39' W 118°13'7 6.7
2016-Jul-14 11:33N 33°36' W 118°20'4 3.6
2016-Jul-14 10:33N 33°38' W 118°24'6 6.2
2016-Jul-14 09:33N 33°41' W 118°30'9 8.5
2016-Jul-14 08:33N 33°45' W 118°39'1110.7
2016-Jul-14 07:33N 33°50' W 118°51'1110.5
2016-Jul-14 06:33N 33°55' W 119°02'1010.5
2016-Jul-14 05:33N 34°01' W 119°12'1110.7
2016-Jul-14 04:33N 34°04' W 119°25'1212.1
2016-Jul-14 03:33N 34°07' W 119°39'1515.3
2016-Jul-14 02:33N 34°12' W 119°57'1614.7
2016-Jul-14 01:29N 34°16' W 120°15'1313.9
2016-Jul-14 00:32N 34°19' W 120°31'1313.6
2016-Jul-13 23:33N 34°23' W 120°46'1010.2
2016-Jul-13 22:33N 34°25' W 120°58'1413.6
2016-Jul-13 21:34N 34°26' W 121°14'1515.2
2016-Jul-13 20:33N 34°26' W 121°33'1515.4
2016-Jul-13 19:33N 34°25' W 121°52'1616.0
2016-Jul-13 18:32N 34°26' W 122°11'1616.0
2016-Jul-13 17:34N 34°26' W 122°30'1716.5
2016-Jul-13 16:33N 34°26' W 122°50'1716.8
2016-Jul-13 15:33N 34°26' W 123°11'1616.6
2016-Jul-13 14:34N 34°26' W 123°31'3416.6
2016-Jul-13 12:31N 34°26' W 124°12'1616.5
2016-Jul-13 11:33N 34°27' W 124°31'1616.3
2016-Jul-13 10:34N 34°27' W 124°51'1716.5
2016-Jul-13 09:33N 34°27' W 125°11'  

Dump ship's entire track history